createdAt,value
2018-10-01T00:01:10.192Z,3.00
2018-10-01T00:03:39.740Z,2.33
2018-10-01T00:06:09.334Z,2.70
2018-10-01T00:08:38.896Z,4.07
2018-10-01T00:11:08.768Z,2.60
2018-10-01T00:13:38.233Z,2.57
2018-10-01T00:16:08.025Z,2.97
2018-10-01T00:18:37.731Z,2.20
2018-10-01T00:21:12.889Z,2.93
2018-10-01T00:23:42.458Z,3.27
2018-10-01T00:26:12.037Z,2.70
2018-10-01T00:28:41.535Z,2.50
2018-10-01T00:31:11.254Z,2.03
2018-10-01T00:33:40.915Z,2.63
2018-10-01T00:36:13.446Z,2.23
2018-10-01T00:38:43.047Z,3.07
2018-10-01T00:41:12.769Z,2.33
2018-10-01T00:43:42.451Z,3.00
2018-10-01T00:46:12.098Z,2.77
2018-10-01T00:48:41.727Z,3.77
2018-10-01T00:51:11.245Z,3.13
2018-10-01T00:53:40.851Z,2.87
2018-10-01T00:56:10.451Z,2.67
2018-10-01T00:58:40.066Z,3.40
2018-10-01T01:01:09.737Z,3.13
2018-10-01T01:03:39.409Z,3.43
2018-10-01T01:06:09.228Z,3.03
2018-10-01T01:08:38.986Z,3.60
2018-10-01T01:11:08.649Z,3.30
2018-10-01T01:13:38.385Z,3.00
2018-10-01T01:16:08.415Z,4.50
2018-10-01T01:18:38.117Z,4.93
2018-10-01T01:21:07.946Z,6.00
2018-10-01T01:23:37.802Z,4.90
2018-10-01T01:26:07.361Z,5.27
2018-10-01T01:28:37.267Z,5.33
2018-10-01T01:31:07.117Z,4.90
2018-10-01T01:33:36.972Z,5.77
2018-10-01T01:36:06.653Z,5.43
2018-10-01T01:38:36.611Z,4.83
2018-10-01T01:41:06.253Z,5.30
2018-10-01T01:43:36.966Z,4.70
2018-10-01T01:46:07.193Z,4.37
2018-10-01T01:48:37.681Z,5.10
2018-10-01T01:51:08.415Z,6.40
2018-10-01T01:53:38.253Z,6.30
2018-10-01T01:56:08.060Z,7.70
2018-10-01T01:58:37.657Z,8.47
2018-10-01T02:01:07.456Z,9.13
2018-10-01T02:03:37.326Z,8.60
2018-10-01T02:06:07.069Z,10.10
2018-10-01T02:08:36.559Z,10.93
2018-10-01T02:11:06.256Z,8.63
2018-10-01T02:13:35.920Z,9.63
2018-10-01T02:16:06.669Z,8.07
2018-10-01T02:18:36.221Z,8.30
2018-10-01T02:21:06.033Z,9.47
2018-10-01T02:23:35.916Z,8.83
2018-10-01T02:26:05.639Z,10.40
2018-10-01T02:28:35.339Z,7.67
2018-10-01T02:31:05.079Z,8.40
2018-10-01T02:33:34.692Z,9.00
2018-10-01T02:36:04.331Z,8.10
2018-10-01T02:38:34.761Z,7.50
2018-10-01T02:41:04.453Z,8.43
2018-10-01T02:43:34.086Z,9.17
2018-10-01T02:46:03.700Z,8.10
2018-10-01T02:48:33.664Z,8.87
2018-10-01T02:51:03.218Z,10.57
2018-10-01T02:53:38.141Z,9.47
2018-10-01T02:56:08.014Z,8.00
2018-10-01T02:58:37.622Z,9.27
2018-10-01T03:01:07.219Z,9.50
2018-10-01T03:03:37.174Z,9.30
2018-10-01T03:06:06.950Z,8.00
2018-10-01T03:08:36.693Z,9.03
2018-10-01T03:11:06.308Z,9.37
2018-10-01T03:13:35.968Z,10.53
2018-10-01T03:16:05.546Z,9.17
2018-10-01T03:18:35.018Z,9.50
2018-10-01T03:21:04.594Z,9.23
2018-10-01T03:23:34.200Z,7.70
2018-10-01T03:26:03.881Z,8.90
2018-10-01T03:28:33.425Z,8.00
2018-10-01T03:31:03.013Z,9.03
2018-10-01T03:33:32.621Z,8.33
2018-10-01T03:36:02.525Z,8.17
2018-10-01T03:38:32.137Z,8.93
2018-10-01T03:41:01.854Z,8.83
2018-10-01T03:43:31.449Z,8.60
2018-10-01T03:46:01.232Z,8.50
2018-10-01T03:48:30.897Z,9.57
2018-10-01T03:51:00.603Z,7.60
2018-10-01T03:53:30.225Z,8.47
2018-10-01T03:56:00.145Z,9.40
2018-10-01T03:58:29.844Z,10.77
2018-10-01T04:00:59.343Z,9.20
2018-10-01T04:03:29.143Z,10.80
2018-10-01T04:05:58.758Z,10.80
2018-10-01T04:08:28.473Z,12.37
2018-10-01T04:10:58.165Z,11.27
2018-10-01T04:13:27.909Z,11.70
2018-10-01T04:15:57.497Z,12.77
2018-10-01T04:18:27.027Z,11.73
2018-10-01T04:20:56.620Z,14.40
2018-10-01T04:23:26.324Z,12.13
2018-10-01T04:25:56.066Z,13.20
2018-10-01T04:28:25.686Z,12.77
2018-10-01T04:30:55.375Z,12.50
2018-10-01T04:33:24.925Z,14.63
2018-10-01T04:35:54.631Z,14.03
2018-10-01T04:38:24.277Z,12.73
2018-10-01T04:40:54.505Z,14.57
2018-10-01T04:43:24.118Z,12.90
2018-10-01T04:45:53.903Z,12.60
2018-10-01T04:48:23.418Z,14.57
2018-10-01T04:50:53.252Z,15.37
2018-10-01T04:53:23.044Z,13.73
2018-10-01T04:55:52.719Z,13.10
2018-10-01T04:58:22.306Z,12.67
2018-10-01T05:00:52.096Z,14.20
2018-10-01T05:03:21.873Z,14.20
2018-10-01T05:05:51.774Z,14.00
2018-10-01T05:08:21.544Z,12.77
2018-10-01T05:10:51.221Z,12.90
2018-10-01T05:13:21.210Z,12.43
2018-10-01T05:15:51.069Z,13.43
2018-10-01T05:18:20.533Z,11.03
2018-10-01T05:20:50.274Z,11.40
2018-10-01T05:23:20.002Z,12.00
2018-10-01T05:25:49.682Z,11.57
2018-10-01T05:28:20.050Z,11.47
2018-10-01T05:30:49.808Z,12.07
2018-10-01T05:33:19.467Z,12.10
2018-10-01T05:35:49.110Z,11.60
2018-10-01T05:38:18.722Z,11.63
2018-10-01T05:40:48.367Z,13.53
2018-10-01T05:43:18.154Z,13.70
2018-10-01T05:45:47.765Z,15.57
2018-10-01T05:48:17.565Z,14.23
2018-10-01T05:50:47.224Z,14.87
2018-10-01T05:53:16.741Z,12.17
2018-10-01T05:55:46.340Z,13.97
2018-10-01T05:58:16.089Z,15.07
2018-10-01T06:00:45.486Z,15.33
2018-10-01T06:03:15.242Z,15.50
2018-10-01T06:05:44.871Z,18.00
2018-10-01T06:08:14.720Z,17.10
2018-10-01T06:10:44.247Z,16.53
2018-10-01T06:13:13.968Z,15.13
2018-10-01T06:15:43.644Z,15.30
2018-10-01T06:18:14.270Z,16.40
2018-10-01T06:20:43.834Z,15.20
2018-10-01T06:23:13.596Z,13.67
2018-10-01T06:25:43.176Z,14.10
2018-10-01T06:28:12.776Z,13.33
2018-10-01T06:30:42.509Z,13.70
2018-10-01T06:33:12.186Z,12.53
2018-10-01T06:35:41.921Z,12.97
2018-10-01T06:38:11.716Z,14.10
2018-10-01T06:40:41.545Z,14.07
2018-10-01T06:43:11.140Z,13.60
2018-10-01T06:45:40.741Z,12.67
2018-10-01T06:48:10.806Z,13.33
2018-10-01T06:50:40.358Z,13.47
2018-10-01T06:53:10.408Z,12.60
2018-10-01T06:55:39.976Z,13.77
2018-10-01T06:58:09.698Z,11.67
2018-10-01T07:00:39.333Z,10.03
2018-10-01T07:03:09.096Z,11.27
2018-10-01T07:05:38.775Z,12.10
2018-10-01T07:08:08.333Z,10.40
2018-10-01T07:10:37.937Z,11.67
2018-10-01T07:13:08.281Z,11.97
2018-10-01T07:15:38.103Z,12.00
2018-10-01T07:18:07.957Z,10.50
2018-10-01T07:20:37.721Z,8.97
2018-10-01T07:23:07.735Z,9.70
2018-10-01T07:25:37.261Z,10.53
2018-10-01T07:28:07.337Z,9.27
2018-10-01T07:30:37.142Z,9.90
2018-10-01T07:33:07.166Z,10.80
2018-10-01T07:35:36.779Z,9.10
2018-10-01T07:38:06.898Z,7.67
2018-10-01T07:40:36.712Z,8.40
2018-10-01T07:43:06.789Z,9.57
2018-10-01T07:45:36.445Z,8.20
2018-10-01T07:48:06.415Z,8.97
2018-10-01T07:50:36.060Z,8.43
2018-10-01T07:53:06.391Z,8.20
2018-10-01T07:55:36.101Z,7.50
2018-10-01T07:58:06.005Z,9.03
2018-10-01T08:00:36.277Z,7.07
2018-10-01T08:03:05.918Z,8.70
2018-10-01T08:05:35.652Z,6.40
2018-10-01T08:08:05.384Z,5.20
2018-10-01T08:10:35.089Z,5.57
2018-10-01T08:13:04.903Z,4.73
2018-10-01T08:15:34.497Z,5.17
2018-10-01T08:18:04.120Z,3.80
2018-10-01T08:20:33.861Z,3.93
2018-10-01T08:23:03.752Z,3.70
2018-10-01T08:25:33.418Z,3.67
2018-10-01T08:28:03.258Z,2.60
2018-10-01T08:30:33.112Z,3.03
2018-10-01T08:33:03.392Z,2.83
2018-10-01T08:35:33.012Z,2.83
2018-10-01T08:38:02.781Z,2.50
2018-10-01T08:40:32.307Z,3.00
2018-10-01T08:43:01.916Z,3.07
2018-10-01T08:45:31.538Z,2.63
2018-10-01T08:48:01.234Z,2.07
2018-10-01T08:50:43.445Z,2.67
2018-10-01T08:53:49.726Z,3.20
2018-10-01T08:56:19.246Z,2.33
2018-10-01T08:58:48.738Z,2.00
2018-10-01T09:01:18.477Z,2.63
2018-10-01T09:03:48.137Z,2.50
2018-10-01T09:06:18.446Z,2.73
2018-10-01T09:08:48.190Z,3.20
2018-10-01T09:11:17.909Z,2.03
2018-10-01T09:13:47.599Z,2.53
2018-10-01T09:16:17.285Z,2.73
2018-10-01T09:18:46.890Z,2.10
2018-10-01T09:21:16.405Z,2.37
2018-10-01T09:23:46.625Z,2.60
2018-10-01T09:26:16.373Z,2.20
2018-10-01T09:28:45.961Z,2.57
2018-10-01T09:31:15.653Z,3.10
2018-10-01T09:33:45.169Z,2.67
2018-10-01T09:36:14.891Z,3.67
2018-10-01T09:38:44.591Z,3.00
2018-10-01T09:41:14.405Z,2.93
2018-10-01T09:43:44.275Z,3.27
2018-10-01T09:46:14.731Z,6.30
2018-10-01T09:48:44.254Z,3.27
2018-10-01T09:51:13.892Z,9.23
2018-10-01T09:53:43.731Z,5.50
2018-10-01T09:56:13.367Z,5.70
2018-10-01T09:58:42.878Z,5.50
2018-10-01T10:01:14.033Z,2.53
2018-10-01T10:03:43.785Z,2.67
2018-10-01T10:06:13.688Z,2.50
2018-10-01T10:08:43.758Z,2.87
2018-10-01T10:11:13.481Z,3.30
2018-10-01T10:13:43.096Z,2.43
2018-10-01T10:16:13.125Z,2.70
2018-10-01T10:18:42.838Z,2.00
2018-10-01T10:21:12.425Z,2.93
2018-10-01T10:23:42.147Z,2.00
2018-10-01T10:26:11.728Z,2.27
2018-10-01T10:28:41.316Z,2.10
2018-10-01T10:31:10.851Z,2.50
2018-10-01T10:33:40.360Z,2.20
2018-10-01T10:36:09.889Z,2.00
2018-10-01T10:38:39.712Z,2.40
2018-10-01T10:41:09.401Z,1.60
2018-10-01T10:43:39.296Z,2.03
2018-10-01T10:46:09.441Z,2.33
2018-10-01T10:48:39.274Z,2.27
2018-10-01T10:51:08.836Z,1.97
2018-10-01T10:53:39.764Z,1.90
2018-10-01T10:56:09.487Z,2.03
2018-10-01T10:58:39.053Z,1.50
2018-10-01T11:01:08.746Z,1.70
2018-10-01T11:03:38.331Z,1.67
2018-10-01T11:06:08.040Z,1.77
2018-10-01T11:08:37.934Z,1.90
2018-10-01T11:11:07.535Z,1.20
2018-10-01T11:13:37.338Z,1.60
2018-10-01T11:16:13.953Z,1.00
2018-10-01T11:18:44.099Z,1.17
2018-10-01T11:21:13.919Z,1.27
2018-10-01T11:23:43.475Z,1.20
2018-10-01T11:26:13.227Z,0.90
2018-10-01T11:28:43.289Z,1.37
2018-10-01T11:31:12.911Z,0.83
2018-10-01T11:33:43.028Z,1.30
2018-10-01T11:36:12.521Z,0.83
2018-10-01T11:38:42.030Z,0.90
2018-10-01T11:41:11.705Z,0.97
2018-10-01T11:43:41.311Z,2.27
2018-10-01T11:46:11.266Z,1.17
2018-10-01T11:48:40.838Z,1.00
2018-10-01T11:51:10.713Z,1.23
2018-10-01T11:53:40.392Z,1.37
2018-10-01T11:56:09.929Z,0.70
2018-10-01T11:58:39.507Z,1.17
2018-10-01T12:01:09.333Z,1.00
2018-10-01T12:03:38.963Z,1.00
2018-10-01T12:06:08.640Z,1.40
2018-10-01T12:08:38.219Z,1.00
2018-10-01T12:11:08.055Z,1.50
2018-10-01T12:13:37.723Z,1.37
2018-10-01T12:16:07.921Z,1.10
2018-10-01T12:18:37.420Z,1.30
2018-10-01T12:21:07.343Z,1.27
2018-10-01T12:23:36.998Z,0.93
2018-10-01T12:26:06.810Z,0.93
2018-10-01T12:28:36.407Z,1.07
2018-10-01T12:31:06.987Z,0.80
2018-10-01T12:33:36.659Z,1.00
2018-10-01T12:36:06.680Z,0.80
2018-10-01T12:38:36.538Z,1.20
2018-10-01T12:41:06.249Z,1.20
2018-10-01T12:43:35.751Z,1.10
2018-10-01T12:46:11.704Z,1.20
2018-10-01T12:48:41.610Z,0.97
2018-10-01T12:51:11.315Z,1.40
2018-10-01T12:53:40.914Z,1.10
2018-10-01T12:56:10.604Z,0.80
2018-10-01T12:58:40.232Z,1.20
2018-10-01T13:01:09.842Z,1.20
2018-10-01T13:03:39.589Z,1.03
2018-10-01T13:06:09.497Z,1.10
2018-10-01T13:08:39.109Z,0.80
2018-10-01T13:11:08.667Z,0.90
2018-10-01T13:13:38.346Z,0.90
2018-10-01T13:16:08.025Z,1.03
2018-10-01T13:18:37.679Z,0.80
2018-10-01T13:21:07.607Z,0.90
2018-10-01T13:23:37.331Z,0.97
2018-10-01T13:26:07.193Z,1.10
2018-10-01T13:28:37.280Z,0.80
2018-10-01T13:31:07.133Z,1.03
2018-10-01T13:33:37.102Z,1.00
2018-10-01T13:36:06.800Z,0.70
2018-10-01T13:38:36.471Z,0.90
2018-10-01T13:41:06.487Z,1.20
2018-10-01T13:43:36.179Z,1.00
2018-10-01T13:46:05.975Z,1.30
2018-10-01T13:48:36.203Z,1.47
2018-10-01T13:51:05.727Z,0.80
2018-10-01T13:53:35.641Z,1.30
2018-10-01T13:56:05.472Z,0.83
2018-10-01T13:58:35.225Z,0.93
2018-10-01T14:01:04.929Z,1.40
2018-10-01T14:03:35.308Z,1.00
2018-10-01T14:06:05.106Z,1.13
2018-10-01T14:08:34.885Z,1.33
2018-10-01T14:11:04.605Z,1.00
2018-10-01T14:13:34.442Z,0.87
2018-10-01T14:16:04.062Z,1.00
2018-10-01T14:18:33.618Z,1.00
2018-10-01T14:21:03.273Z,0.70
2018-10-01T14:23:32.832Z,0.80
2018-10-01T14:26:02.482Z,1.00
2018-10-01T14:28:32.152Z,0.90
2018-10-01T14:31:01.948Z,1.37
2018-10-01T14:33:31.664Z,0.93
2018-10-01T14:36:01.304Z,1.17
2018-10-01T14:38:31.013Z,0.83
2018-10-01T14:41:00.549Z,1.00
2018-10-01T14:43:30.413Z,1.30
2018-10-01T14:46:00.854Z,1.07
2018-10-01T14:48:30.635Z,1.20
2018-10-01T14:51:00.184Z,1.37
2018-10-01T14:53:29.936Z,1.07
2018-10-01T14:55:59.805Z,1.10
2018-10-01T14:58:29.677Z,1.20
2018-10-01T15:00:59.374Z,1.33
2018-10-01T15:03:29.121Z,1.43
2018-10-01T15:05:59.021Z,1.00
2018-10-01T15:08:28.757Z,0.90
2018-10-01T15:10:58.593Z,1.10
2018-10-01T15:13:28.303Z,0.93
2018-10-01T15:15:58.211Z,0.83
2018-10-01T15:18:27.812Z,1.13
2018-10-01T15:20:57.636Z,1.70
2018-10-01T15:23:27.384Z,0.70
2018-10-01T15:25:57.093Z,1.10
2018-10-01T15:28:26.749Z,0.80
2018-10-01T15:30:56.354Z,1.23
2018-10-01T15:33:25.977Z,0.97
2018-10-01T15:35:56.148Z,1.20
2018-10-01T15:38:25.906Z,0.93
2018-10-01T15:40:55.803Z,1.40
2018-10-01T15:43:25.536Z,1.20
2018-10-01T15:45:55.363Z,1.40
2018-10-01T15:48:24.981Z,1.87
2018-10-01T15:50:54.661Z,1.50
2018-10-01T15:53:24.276Z,1.23
2018-10-01T15:55:54.613Z,1.00
2018-10-01T15:58:24.209Z,1.30
2018-10-01T16:00:53.816Z,1.37
2018-10-01T16:03:23.418Z,1.20
2018-10-01T16:05:53.107Z,1.27
2018-10-01T16:08:23.036Z,1.33
2018-10-01T16:10:52.743Z,1.40
2018-10-01T16:13:22.554Z,1.10
2018-10-01T16:15:52.265Z,1.20
2018-10-01T16:18:22.002Z,1.13
2018-10-01T16:20:51.765Z,1.40
2018-10-01T16:23:21.426Z,1.53
2018-10-01T16:25:51.461Z,1.10
2018-10-01T16:28:21.130Z,2.13
2018-10-01T16:30:50.978Z,1.67
2018-10-01T16:33:20.557Z,2.47
2018-10-01T16:35:50.379Z,1.43
2018-10-01T16:38:20.778Z,1.83
2018-10-01T16:40:50.806Z,1.60
2018-10-01T16:43:20.366Z,1.60
2018-10-01T16:45:50.407Z,1.73
2018-10-01T16:48:20.093Z,2.90
2018-10-01T16:50:49.900Z,1.40
2018-10-01T16:53:19.569Z,1.70
2018-10-01T16:55:49.473Z,2.27
2018-10-01T16:58:19.331Z,1.43
2018-10-01T17:00:49.106Z,2.27
2018-10-01T17:03:18.688Z,2.33
2018-10-01T17:05:48.217Z,2.00
2018-10-01T17:08:17.799Z,1.70
2018-10-01T17:10:47.533Z,1.87
2018-10-01T17:13:17.700Z,2.40
2018-10-01T17:15:47.243Z,2.10
2018-10-01T17:18:16.961Z,1.50
2018-10-01T17:20:46.859Z,1.30
2018-10-01T17:23:16.439Z,1.90
2018-10-01T17:25:46.286Z,1.70
2018-10-01T17:28:15.909Z,1.67
2018-10-01T17:30:45.493Z,2.07
2018-10-01T17:33:15.265Z,2.17
2018-10-01T17:35:45.008Z,2.40
2018-10-01T17:38:14.855Z,1.77
2018-10-01T17:40:44.464Z,1.33
2018-10-01T17:43:14.332Z,1.20
2018-10-01T17:45:43.995Z,1.50
2018-10-01T17:48:13.747Z,1.37
2018-10-01T17:50:43.508Z,1.20
2018-10-01T17:53:13.465Z,1.50
2018-10-01T17:55:43.328Z,1.37
2018-10-01T17:58:12.957Z,1.00
2018-10-01T18:00:42.663Z,2.40
2018-10-01T18:03:12.545Z,1.30
2018-10-01T18:05:42.282Z,1.30
2018-10-01T18:08:11.986Z,1.13
2018-10-01T18:10:41.782Z,1.87
2018-10-01T18:13:12.120Z,2.40
2018-10-01T18:15:41.832Z,1.60
2018-10-01T18:18:11.600Z,1.87
2018-10-01T18:20:41.300Z,1.67
2018-10-01T18:23:11.088Z,1.67
2018-10-01T18:25:40.861Z,1.87
2018-10-01T18:28:10.501Z,1.87
2018-10-01T18:30:40.225Z,1.40
2018-10-01T18:33:09.857Z,2.40
2018-10-01T18:35:39.491Z,1.53
2018-10-01T18:38:09.230Z,1.27
2018-10-01T18:40:38.903Z,1.97
2018-10-01T18:43:08.676Z,1.93
2018-10-01T18:45:38.485Z,1.33
2018-10-01T18:48:09.378Z,1.67
2018-10-01T18:50:39.743Z,1.77
2018-10-01T18:53:09.964Z,2.20
2018-10-01T18:55:40.164Z,2.10
2018-10-01T18:58:10.336Z,1.63
2018-10-01T19:00:40.125Z,2.13
2018-10-01T19:03:09.937Z,1.50
2018-10-01T19:05:39.924Z,1.53
2018-10-01T19:08:09.516Z,1.73
2018-10-01T19:10:39.270Z,1.60
2018-10-01T19:13:09.028Z,2.70
2018-10-01T19:15:38.790Z,1.63
2018-10-01T19:18:08.434Z,1.53
2018-10-01T19:20:38.024Z,1.60
2018-10-01T19:23:07.613Z,1.47
2018-10-01T19:25:37.593Z,1.53
2018-10-01T19:28:07.329Z,1.30
2018-10-01T19:30:36.949Z,1.03
2018-10-01T19:33:07.388Z,1.47
2018-10-01T19:35:37.408Z,1.63
2018-10-01T19:38:07.470Z,1.03
2018-10-01T19:40:37.104Z,1.50
2018-10-01T19:43:07.240Z,1.50
2018-10-01T19:45:36.924Z,1.27
2018-10-01T19:48:07.403Z,1.53
2018-10-01T19:50:36.979Z,1.97
2018-10-01T19:53:07.139Z,1.50
2018-10-01T19:55:36.852Z,1.20
2018-10-01T19:58:06.924Z,1.43
2018-10-01T20:00:36.834Z,1.10
2018-10-01T20:03:06.616Z,1.47
2018-10-01T20:05:36.252Z,1.53
2018-10-01T20:08:06.161Z,0.93
2018-10-01T20:10:35.895Z,1.00
2018-10-01T20:13:06.056Z,1.57
2018-10-01T20:15:35.694Z,1.43
2018-10-01T20:18:05.226Z,1.07
2018-10-01T20:20:34.918Z,1.10
2018-10-01T20:23:04.701Z,1.30
2018-10-01T20:25:34.373Z,1.50
2018-10-01T20:28:04.384Z,1.80
2018-10-01T20:30:34.130Z,1.70
2018-10-01T20:33:04.197Z,1.67
2018-10-01T20:35:34.092Z,1.90
2018-10-01T20:38:03.683Z,2.03
2018-10-01T20:40:33.416Z,2.17
2018-10-01T20:43:03.152Z,2.30
2018-10-01T20:45:32.912Z,2.33
2018-10-01T20:48:02.976Z,2.07
2018-10-01T20:50:32.626Z,2.03
2018-10-01T20:53:02.354Z,2.17
2018-10-01T20:55:31.938Z,2.70
2018-10-01T20:58:01.701Z,2.80
2018-10-01T21:00:31.343Z,2.30
2018-10-01T21:03:01.492Z,2.50
2018-10-01T21:05:31.481Z,1.90
2018-10-01T21:08:01.272Z,2.93
2018-10-01T21:10:30.816Z,2.50
2018-10-01T21:13:00.472Z,2.00
2018-10-01T21:15:30.244Z,2.30
2018-10-01T21:17:59.911Z,2.50
2018-10-01T21:20:30.448Z,2.33
2018-10-01T21:23:00.159Z,2.20
2018-10-01T21:25:29.969Z,2.07
2018-10-01T21:27:59.664Z,2.13
2018-10-01T21:30:29.358Z,2.20
2018-10-01T21:32:59.108Z,1.90
2018-10-01T21:35:28.882Z,1.50
2018-10-01T21:37:58.531Z,1.60
2018-10-01T21:40:30.368Z,2.37
2018-10-01T21:42:59.974Z,2.47
2018-10-01T21:45:29.605Z,2.07
2018-10-01T21:47:59.150Z,2.50
2018-10-01T21:50:28.915Z,2.20
2018-10-01T21:52:58.617Z,2.30
2018-10-01T21:55:28.432Z,2.30
2018-10-01T21:57:58.090Z,2.73
2018-10-01T22:00:35.432Z,2.93
2018-10-01T22:03:05.234Z,3.07
2018-10-01T22:05:34.858Z,3.07
2018-10-01T22:08:04.527Z,4.17
2018-10-01T22:10:41.070Z,3.10
2018-10-01T22:13:10.835Z,2.73
2018-10-01T22:15:45.359Z,3.17
2018-10-01T22:18:17.726Z,3.07
2018-10-01T22:20:47.433Z,3.40
2018-10-01T22:23:17.349Z,3.63
2018-10-01T22:25:47.057Z,4.10
2018-10-01T22:28:16.781Z,4.17
2018-10-01T22:30:46.456Z,3.83
2018-10-01T22:33:16.290Z,5.20
2018-10-01T22:35:45.994Z,5.27
2018-10-01T22:38:15.812Z,4.33
2018-10-01T22:40:45.519Z,4.30
2018-10-01T22:43:15.192Z,4.83
2018-10-01T22:45:45.205Z,5.13
2018-10-01T22:48:15.008Z,4.80
2018-10-01T22:50:44.772Z,3.63
2018-10-01T22:53:14.428Z,4.33
2018-10-01T22:55:43.984Z,4.23
2018-10-01T22:58:13.704Z,4.20
2018-10-01T23:00:43.231Z,4.63
2018-10-01T23:03:13.012Z,4.90
2018-10-01T23:05:43.459Z,4.00
2018-10-01T23:08:13.146Z,4.33
2018-10-01T23:10:42.760Z,5.00
2018-10-01T23:13:12.269Z,5.10
2018-10-01T23:15:41.873Z,4.33
2018-10-01T23:18:11.531Z,5.20
2018-10-01T23:20:41.181Z,4.10
2018-10-01T23:23:11.114Z,4.90
2018-10-01T23:25:40.711Z,4.13
2018-10-01T23:28:10.483Z,4.10
2018-10-01T23:30:40.312Z,4.80
2018-10-01T23:33:09.962Z,4.90
2018-10-01T23:35:39.623Z,5.10
2018-10-01T23:38:09.479Z,3.60
2018-10-01T23:40:39.361Z,4.50
2018-10-01T23:43:08.964Z,4.47
2018-10-01T23:45:38.841Z,3.77
2018-10-01T23:48:11.412Z,3.73
2018-10-01T23:50:41.297Z,3.60
2018-10-01T23:53:13.961Z,3.43
2018-10-01T23:55:43.629Z,3.73
2018-10-01T23:58:13.384Z,3.63
